createdAt,value
2023-04-10T00:01:01.846Z,12.07
2023-04-10T00:03:25.323Z,12.43
2023-04-10T00:05:48.285Z,11.85
2023-04-10T00:08:10.938Z,12.73
2023-04-10T00:10:33.663Z,12.37
2023-04-10T00:12:56.538Z,12.10
2023-04-10T00:15:19.293Z,13.20
2023-04-10T00:17:42.036Z,12.68
2023-04-10T00:20:06.052Z,12.65
2023-04-10T00:22:30.423Z,13.20
2023-04-10T00:24:53.204Z,12.88
2023-04-10T00:27:15.833Z,13.13
2023-04-10T00:29:38.764Z,13.05
2023-04-10T00:32:01.369Z,12.63
2023-04-10T00:34:24.333Z,11.60
2023-04-10T00:36:47.527Z,11.75
2023-04-10T00:39:10.263Z,12.27
2023-04-10T00:41:33.503Z,12.23
2023-04-10T00:43:57.361Z,12.60
2023-04-10T00:46:20.492Z,12.37
2023-04-10T00:48:43.594Z,13.07
2023-04-10T00:51:06.654Z,12.23
2023-04-10T00:53:29.790Z,12.55
2023-04-10T00:55:53.058Z,13.00
2023-04-10T00:58:16.125Z,12.00
2023-04-10T01:00:38.702Z,12.20
2023-04-10T01:03:01.780Z,12.25
2023-04-10T01:05:25.595Z,11.98
2023-04-10T01:08:05.697Z,13.23
2023-04-10T01:10:54.565Z,11.93
2023-04-10T01:13:26.928Z,11.77
2023-04-10T01:16:01.799Z,12.25
2023-04-10T01:18:39.636Z,12.25
2023-04-10T01:21:03.049Z,13.27
2023-04-10T01:23:42.280Z,12.33
2023-04-10T01:26:07.637Z,12.02
2023-04-10T01:28:47.565Z,12.90
2023-04-10T01:31:15.649Z,11.20
2023-04-10T01:33:48.544Z,12.88
2023-04-10T01:36:13.210Z,12.37
2023-04-10T01:38:37.916Z,12.20
2023-04-10T01:41:01.733Z,12.60
2023-04-10T01:43:27.117Z,11.00
2023-04-10T01:45:52.070Z,13.25
2023-04-10T01:48:16.642Z,11.63
2023-04-10T01:50:40.777Z,11.50
2023-04-10T01:53:06.021Z,11.63
2023-04-10T01:55:31.966Z,12.10
2023-04-10T01:58:00.177Z,12.23
2023-04-10T02:00:23.260Z,12.57
2023-04-10T02:02:47.349Z,12.82
2023-04-10T02:05:13.342Z,12.40
2023-04-10T02:07:44.165Z,12.00
2023-04-10T02:10:21.534Z,12.45
2023-04-10T02:12:55.646Z,11.73
2023-04-10T02:15:20.962Z,11.77
2023-04-10T02:17:44.342Z,11.95
2023-04-10T02:20:09.139Z,11.60
2023-04-10T02:22:33.784Z,12.43
2023-04-10T02:24:57.584Z,11.43
2023-04-10T02:27:34.539Z,11.82
2023-04-10T02:29:57.222Z,11.35
2023-04-10T02:32:20.491Z,12.13
2023-04-10T02:34:43.907Z,11.63
2023-04-10T02:37:06.492Z,11.37
2023-04-10T02:39:29.695Z,11.57
2023-04-10T02:41:52.438Z,11.93
2023-04-10T02:44:15.083Z,11.45
2023-04-10T02:46:38.627Z,12.52
2023-04-10T02:49:01.717Z,11.30
2023-04-10T02:51:24.475Z,11.80
2023-04-10T02:53:48.272Z,12.35
2023-04-10T02:56:20.920Z,12.50
2023-04-10T02:58:46.214Z,11.98
2023-04-10T03:01:10.265Z,12.00
2023-04-10T03:03:43.833Z,12.75
2023-04-10T03:06:09.019Z,13.30
2023-04-10T03:08:32.715Z,11.35
2023-04-10T03:10:55.442Z,12.30
2023-04-10T03:13:18.535Z,12.67
2023-04-10T03:15:41.659Z,12.23
2023-04-10T03:18:07.408Z,12.38
2023-04-10T03:20:30.134Z,12.32
2023-04-10T03:22:53.197Z,12.82
2023-04-10T03:25:16.610Z,12.53
2023-04-10T03:27:39.238Z,11.40
2023-04-10T03:30:03.692Z,12.48
2023-04-10T03:32:33.993Z,12.43
2023-04-10T03:34:58.051Z,12.95
2023-04-10T03:37:20.713Z,11.67
2023-04-10T03:39:43.319Z,12.10
2023-04-10T03:42:09.745Z,12.10
2023-04-10T03:44:34.289Z,11.82
2023-04-10T03:46:59.388Z,12.68
2023-04-10T03:49:22.600Z,11.83
2023-04-10T03:51:47.760Z,12.25
2023-04-10T03:54:10.571Z,11.68
2023-04-10T03:56:33.185Z,12.43
2023-04-10T03:58:56.931Z,12.50
2023-04-10T04:01:20.706Z,11.93
2023-04-10T04:04:01.390Z,11.90
2023-04-10T04:06:44.859Z,12.50
2023-04-10T04:09:19.686Z,12.23
2023-04-10T04:12:00.447Z,12.40
2023-04-10T04:14:44.794Z,11.93
2023-04-10T04:17:22.808Z,12.15
2023-04-10T04:20:05.144Z,12.77
2023-04-10T04:22:46.439Z,12.10
2023-04-10T04:25:29.420Z,12.82
2023-04-10T04:28:17.591Z,11.63
2023-04-10T04:30:54.304Z,12.52
2023-04-10T04:33:22.594Z,13.07
2023-04-10T04:36:01.752Z,13.18
2023-04-10T04:38:43.396Z,12.82
2023-04-10T04:41:20.619Z,12.30
2023-04-10T04:44:02.448Z,13.02
2023-04-10T04:46:44.728Z,12.88
2023-04-10T04:49:42.966Z,12.70
2023-04-10T04:52:20.077Z,12.77
2023-04-10T04:54:56.908Z,12.97
2023-04-10T04:57:37.938Z,12.80
2023-04-10T05:00:20.915Z,13.00
2023-04-10T05:02:49.624Z,12.70
2023-04-10T05:05:44.627Z,12.63
2023-04-10T05:08:07.513Z,12.70
2023-04-10T05:10:59.000Z,11.95
2023-04-10T05:13:40.564Z,13.38
2023-04-10T05:16:29.509Z,12.82
2023-04-10T05:19:09.994Z,13.18
2023-04-10T05:22:05.418Z,12.40
2023-04-10T05:25:06.689Z,13.27
2023-04-10T05:27:44.265Z,12.65
2023-04-10T05:30:25.971Z,13.20
2023-04-10T05:33:05.393Z,13.38
2023-04-10T05:35:30.854Z,13.07
2023-04-10T05:38:13.793Z,13.13
2023-04-10T05:41:09.080Z,13.48
2023-04-10T05:43:51.186Z,13.02
2023-04-10T05:46:40.207Z,13.75
2023-04-10T05:49:19.152Z,13.17
2023-04-10T05:52:00.307Z,13.20
2023-04-10T05:54:41.395Z,13.70
2023-04-10T05:57:20.974Z,13.73
2023-04-10T05:59:59.516Z,13.98
2023-04-10T06:02:39.143Z,13.70
2023-04-10T06:05:05.546Z,13.18
2023-04-10T06:07:30.061Z,13.55
2023-04-10T06:09:53.093Z,14.35
2023-04-10T06:12:15.793Z,14.98
2023-04-10T06:14:39.139Z,15.07
2023-04-10T06:17:02.239Z,15.05
2023-04-10T06:19:25.055Z,14.50
2023-04-10T06:21:47.728Z,14.60
2023-04-10T06:24:12.358Z,15.00
2023-04-10T06:26:35.480Z,14.33
2023-04-10T06:29:00.546Z,14.05
2023-04-10T06:31:24.824Z,13.73
2023-04-10T06:33:49.058Z,14.43
2023-04-10T06:36:11.767Z,14.60
2023-04-10T06:38:40.739Z,14.50
2023-04-10T06:41:05.354Z,14.90
2023-04-10T06:43:28.244Z,14.35
2023-04-10T06:45:51.099Z,13.88
2023-04-10T06:48:14.533Z,13.90
2023-04-10T06:50:37.153Z,14.50
2023-04-10T06:53:00.238Z,13.77
2023-04-10T06:55:24.341Z,13.38
2023-04-10T06:57:46.999Z,14.32
2023-04-10T07:00:10.462Z,14.18
2023-04-10T07:02:33.418Z,13.97
2023-04-10T07:04:56.945Z,14.23
2023-04-10T07:07:19.952Z,13.88
2023-04-10T07:09:42.595Z,13.40
2023-04-10T07:12:05.553Z,13.85
2023-04-10T07:14:28.207Z,13.67
2023-04-10T07:16:51.373Z,13.48
2023-04-10T07:19:13.955Z,13.40
2023-04-10T07:21:37.095Z,14.00
2023-04-10T07:23:59.779Z,13.82
2023-04-10T07:26:22.916Z,13.07
2023-04-10T07:28:45.699Z,13.15
2023-04-10T07:31:08.626Z,13.43
2023-04-10T07:33:31.522Z,13.98
2023-04-10T07:35:54.243Z,15.73
2023-04-10T07:38:17.910Z,14.50
2023-04-10T07:40:40.655Z,14.02
2023-04-10T07:43:03.885Z,13.85
2023-04-10T07:45:27.872Z,13.82
2023-04-10T07:47:50.575Z,15.73
2023-04-10T07:50:13.214Z,13.87
2023-04-10T07:52:36.141Z,14.05
2023-04-10T07:55:02.123Z,14.10
2023-04-10T07:57:24.797Z,13.95
2023-04-10T07:59:48.082Z,13.48
2023-04-10T08:02:10.756Z,13.43
2023-04-10T08:04:34.054Z,13.73
2023-04-10T08:06:56.789Z,13.60
2023-04-10T08:09:20.540Z,13.65
2023-04-10T08:11:43.543Z,13.45
2023-04-10T08:14:07.290Z,13.07
2023-04-10T08:16:32.910Z,13.55
2023-04-10T08:18:59.682Z,13.43
2023-04-10T08:21:23.163Z,12.57
2023-04-10T08:23:48.863Z,12.85
2023-04-10T08:26:11.457Z,13.00
2023-04-10T08:28:34.103Z,12.65
2023-04-10T08:30:56.752Z,12.45
2023-04-10T08:33:19.664Z,12.20
2023-04-10T08:35:42.242Z,11.55
2023-04-10T08:38:13.631Z,13.07
2023-04-10T08:40:38.093Z,11.50
2023-04-10T08:43:00.931Z,11.40
2023-04-10T08:45:23.775Z,11.35
2023-04-10T08:47:49.781Z,10.55
2023-04-10T08:50:16.203Z,11.13
2023-04-10T08:52:44.061Z,10.10
2023-04-10T08:55:09.242Z,10.43
2023-04-10T08:57:32.870Z,10.75
2023-04-10T08:59:55.869Z,10.32
2023-04-10T09:02:19.428Z,9.83
2023-04-10T09:04:49.152Z,10.10
2023-04-10T09:07:11.720Z,8.65
2023-04-10T09:09:35.474Z,8.98
2023-04-10T09:12:01.082Z,9.43
2023-04-10T09:14:26.012Z,9.23
2023-04-10T09:16:49.272Z,8.73
2023-04-10T09:19:11.972Z,8.63
2023-04-10T09:21:34.540Z,8.80
2023-04-10T09:24:01.680Z,8.55
2023-04-10T09:26:29.104Z,8.20
2023-04-10T09:29:06.361Z,8.05
2023-04-10T09:31:39.499Z,8.00
2023-04-10T09:34:18.435Z,7.38
2023-04-10T09:36:45.573Z,8.30
2023-04-10T09:39:09.612Z,8.13
2023-04-10T09:41:32.465Z,8.90
2023-04-10T09:44:18.927Z,9.40
2023-04-10T09:46:41.738Z,9.38
2023-04-10T09:49:07.907Z,9.32
2023-04-10T09:51:35.582Z,9.07
2023-04-10T09:53:58.492Z,9.07
2023-04-10T09:56:22.739Z,9.18
2023-04-10T09:58:46.082Z,9.18
2023-04-10T10:01:08.843Z,8.70
2023-04-10T10:03:31.567Z,9.27
2023-04-10T10:05:54.415Z,9.00
2023-04-10T10:08:17.765Z,8.57
2023-04-10T10:10:53.732Z,8.73
2023-04-10T10:13:40.531Z,8.82
2023-04-10T10:16:12.732Z,8.80
2023-04-10T10:18:47.473Z,9.25
2023-04-10T10:21:10.439Z,8.75
2023-04-10T10:23:34.265Z,8.70
2023-04-10T10:26:02.303Z,8.85
2023-04-10T10:28:28.342Z,8.60
2023-04-10T10:30:51.589Z,8.65
2023-04-10T10:33:15.159Z,8.15
2023-04-10T10:35:38.040Z,8.80
2023-04-10T10:38:02.462Z,8.30
2023-04-10T10:40:52.102Z,8.50
2023-04-10T10:43:37.822Z,8.32
2023-04-10T10:46:09.209Z,7.57
2023-04-10T10:48:32.114Z,8.15
2023-04-10T10:50:57.714Z,7.97
2023-04-10T10:53:43.085Z,7.63
2023-04-10T10:56:23.585Z,7.25
2023-04-10T10:58:51.116Z,7.13
2023-04-10T11:01:14.357Z,8.00
2023-04-10T11:03:37.586Z,7.45
2023-04-10T11:06:12.965Z,7.87
2023-04-10T11:08:44.221Z,7.45
2023-04-10T11:11:15.939Z,7.50
2023-04-10T11:14:02.877Z,8.43
2023-04-10T11:16:36.008Z,7.60
2023-04-10T11:19:13.795Z,7.60
2023-04-10T11:22:05.730Z,7.57
2023-04-10T11:24:29.540Z,7.57
2023-04-10T11:26:52.213Z,6.90
2023-04-10T11:29:17.919Z,8.25
2023-04-10T11:31:40.596Z,8.00
2023-04-10T11:34:08.209Z,7.60
2023-04-10T11:36:32.257Z,8.15
2023-04-10T11:38:57.613Z,8.30
2023-04-10T11:41:20.596Z,8.00
2023-04-10T11:43:43.203Z,8.13
2023-04-10T11:46:10.449Z,8.38
2023-04-10T11:48:34.007Z,8.50
2023-04-10T11:50:56.750Z,8.20
2023-04-10T11:53:22.795Z,7.82
2023-04-10T11:55:45.514Z,7.83
2023-04-10T11:58:26.191Z,8.02
2023-04-10T12:01:00.563Z,7.93
2023-04-10T12:03:36.719Z,7.50
2023-04-10T12:05:59.553Z,7.78
2023-04-10T12:08:30.008Z,7.53
2023-04-10T12:10:53.070Z,7.35
2023-04-10T12:13:29.441Z,7.40
2023-04-10T12:15:52.345Z,7.88
2023-04-10T12:18:15.053Z,8.90
2023-04-10T12:20:37.983Z,7.33
2023-04-10T12:23:03.129Z,7.90
2023-04-10T12:25:25.862Z,7.70
2023-04-10T12:27:50.754Z,7.32
2023-04-10T12:30:13.413Z,8.02
2023-04-10T12:32:37.478Z,8.17
2023-04-10T12:35:03.273Z,8.25
2023-04-10T12:37:46.488Z,8.23
2023-04-10T12:40:09.831Z,8.18
2023-04-10T12:42:40.585Z,8.15
2023-04-10T12:45:03.576Z,7.07
2023-04-10T12:47:28.882Z,8.07
2023-04-10T12:50:07.861Z,7.70
2023-04-10T12:52:30.942Z,7.43
2023-04-10T12:54:53.822Z,7.60
2023-04-10T12:57:27.310Z,7.50
2023-04-10T12:59:50.186Z,7.80
2023-04-10T13:02:13.340Z,7.70
2023-04-10T13:04:36.172Z,7.32
2023-04-10T13:06:58.855Z,6.85
2023-04-10T13:09:22.422Z,7.13
2023-04-10T13:11:46.096Z,6.97
2023-04-10T13:14:11.291Z,7.57
2023-04-10T13:16:34.231Z,8.05
2023-04-10T13:18:57.196Z,8.32
2023-04-10T13:21:22.942Z,7.30
2023-04-10T13:23:47.137Z,7.97
2023-04-10T13:26:09.887Z,8.32
2023-04-10T13:28:32.693Z,8.18
2023-04-10T13:30:55.319Z,8.35
2023-04-10T13:33:18.303Z,8.27
2023-04-10T13:35:41.293Z,8.30
2023-04-10T13:38:04.215Z,7.38
2023-04-10T13:40:27.358Z,7.80
2023-04-10T13:42:50.062Z,7.68
2023-04-10T13:45:12.772Z,7.30
2023-04-10T13:47:35.474Z,6.85
2023-04-10T13:49:58.072Z,6.78
2023-04-10T13:52:20.894Z,6.30
2023-04-10T13:54:43.616Z,6.47
2023-04-10T13:57:06.303Z,6.80
2023-04-10T13:59:29.033Z,7.07
2023-04-10T14:01:52.803Z,6.50
2023-04-10T14:04:15.598Z,6.50
2023-04-10T14:06:38.173Z,6.53
2023-04-10T14:09:01.233Z,6.50
2023-04-10T14:11:24.002Z,5.90
2023-04-10T14:13:46.690Z,6.35
2023-04-10T14:16:09.653Z,6.78
2023-04-10T14:18:32.465Z,6.60
2023-04-10T14:20:55.302Z,6.40
2023-04-10T14:23:18.514Z,5.97
2023-04-10T14:25:41.243Z,6.00
2023-04-10T14:28:03.892Z,5.93
2023-04-10T14:30:31.091Z,5.57
2023-04-10T14:32:54.716Z,5.27
2023-04-10T14:35:17.515Z,5.68
2023-04-10T14:37:40.516Z,5.93
2023-04-10T14:40:05.061Z,6.20
2023-04-10T14:42:27.838Z,6.47
2023-04-10T14:44:50.527Z,6.20
2023-04-10T14:47:13.746Z,6.50
2023-04-10T14:49:36.608Z,6.32
2023-04-10T14:51:59.218Z,5.68
2023-04-10T14:54:23.670Z,6.28
2023-04-10T14:56:46.635Z,6.17
2023-04-10T14:59:09.406Z,6.10
2023-04-10T15:01:32.051Z,5.80
2023-04-10T15:03:55.420Z,6.18
2023-04-10T15:06:18.240Z,6.28
2023-04-10T15:08:42.640Z,6.40
2023-04-10T15:11:06.033Z,6.22
2023-04-10T15:13:28.748Z,6.10
2023-04-10T15:15:51.378Z,6.03
2023-04-10T15:18:16.173Z,5.80
2023-04-10T15:20:39.055Z,6.10
2023-04-10T15:23:02.381Z,5.78
2023-04-10T15:25:25.004Z,5.97
2023-04-10T15:27:47.656Z,5.72
2023-04-10T15:30:11.112Z,6.38
2023-04-10T15:32:37.295Z,5.67
2023-04-10T15:34:59.934Z,5.80
2023-04-10T15:37:27.961Z,5.38
2023-04-10T15:39:51.107Z,6.10
2023-04-10T15:42:16.012Z,5.80
2023-04-10T15:44:38.569Z,5.50
2023-04-10T15:47:01.180Z,6.28
2023-04-10T15:49:36.302Z,5.93
2023-04-10T15:51:59.846Z,5.80
2023-04-10T15:54:22.500Z,6.00
2023-04-10T15:56:45.504Z,6.40
2023-04-10T15:59:08.155Z,5.75
2023-04-10T16:01:31.063Z,5.90
2023-04-10T16:03:54.302Z,6.28
2023-04-10T16:06:17.269Z,6.15
2023-04-10T16:08:40.026Z,5.70
2023-04-10T16:11:02.827Z,5.90
2023-04-10T16:13:25.493Z,5.95
2023-04-10T16:15:49.830Z,6.03
2023-04-10T16:18:13.183Z,5.82
2023-04-10T16:20:36.127Z,5.97
2023-04-10T16:22:59.396Z,5.82
2023-04-10T16:25:22.277Z,5.88
2023-04-10T16:27:44.878Z,5.60
2023-04-10T16:30:08.663Z,5.72
2023-04-10T16:32:31.877Z,5.70
2023-04-10T16:34:54.653Z,5.55
2023-04-10T16:37:17.194Z,6.00
2023-04-10T16:39:40.606Z,6.57
2023-04-10T16:42:03.624Z,7.10
2023-04-10T16:44:26.268Z,8.43
2023-04-10T16:46:48.934Z,9.80
2023-04-10T16:49:11.757Z,8.88
2023-04-10T16:51:34.609Z,7.70
2023-04-10T16:53:57.434Z,7.70
2023-04-10T16:56:20.111Z,6.60
2023-04-10T16:58:42.826Z,6.25
2023-04-10T17:01:20.652Z,6.32
2023-04-10T17:03:44.712Z,6.78
2023-04-10T17:06:07.489Z,6.88
2023-04-10T17:08:30.328Z,7.30
2023-04-10T17:10:53.099Z,7.47
2023-04-10T17:13:15.931Z,8.38
2023-04-10T17:15:38.777Z,8.45
2023-04-10T17:18:01.731Z,9.82
2023-04-10T17:20:24.785Z,11.00
2023-04-10T17:22:47.716Z,9.70
2023-04-10T17:25:11.023Z,9.48
2023-04-10T17:27:33.809Z,8.90
2023-04-10T17:29:57.569Z,9.18
2023-04-10T17:32:20.550Z,9.10
2023-04-10T17:34:43.249Z,8.70
2023-04-10T17:37:05.916Z,9.70
2023-04-10T17:39:28.590Z,8.95
2023-04-10T17:41:51.714Z,9.35
2023-04-10T17:44:14.387Z,8.73
2023-04-10T17:46:37.084Z,9.30
2023-04-10T17:49:01.436Z,9.13
2023-04-10T17:51:25.164Z,9.07
2023-04-10T17:53:47.914Z,9.82
2023-04-10T17:56:19.077Z,9.23
2023-04-10T17:58:43.202Z,9.68
2023-04-10T18:01:07.373Z,10.23
2023-04-10T18:03:30.169Z,9.80
2023-04-10T18:05:53.112Z,10.63
2023-04-10T18:08:16.074Z,10.67
2023-04-10T18:10:38.703Z,11.25
2023-04-10T18:13:01.694Z,11.68
2023-04-10T18:15:28.119Z,11.38
2023-04-10T18:17:51.188Z,12.40
2023-04-10T18:20:14.919Z,13.23
2023-04-10T18:22:37.522Z,13.73
2023-04-10T18:25:01.122Z,16.25
2023-04-10T18:27:23.927Z,16.15
2023-04-10T18:29:46.859Z,16.80
2023-04-10T18:32:09.598Z,13.27
2023-04-10T18:34:32.213Z,12.63
2023-04-10T18:36:55.773Z,11.65
2023-04-10T18:39:19.744Z,11.68
2023-04-10T18:41:42.566Z,13.15
2023-04-10T18:44:05.978Z,11.50
2023-04-10T18:46:30.236Z,11.13
2023-04-10T18:48:55.452Z,11.65
2023-04-10T18:51:18.108Z,12.80
2023-04-10T18:53:41.408Z,12.48
2023-04-10T18:56:04.369Z,13.20
2023-04-10T18:58:27.177Z,13.15
2023-04-10T19:00:50.370Z,16.13
2023-04-10T19:03:14.290Z,15.65
2023-04-10T19:05:36.981Z,14.48
2023-04-10T19:08:04.714Z,14.30
2023-04-10T19:10:28.211Z,14.52
2023-04-10T19:12:53.274Z,14.77
2023-04-10T19:15:16.526Z,13.90
2023-04-10T19:17:39.468Z,14.73
2023-04-10T19:20:02.687Z,13.97
2023-04-10T19:22:25.607Z,14.52
2023-04-10T19:24:48.569Z,15.20
2023-04-10T19:27:11.325Z,14.10
2023-04-10T19:29:34.274Z,14.23
2023-04-10T19:31:56.999Z,14.07
2023-04-10T19:34:19.746Z,13.95
2023-04-10T19:36:42.333Z,14.45
2023-04-10T19:39:05.144Z,13.75
2023-04-10T19:41:27.972Z,13.75
2023-04-10T19:43:52.866Z,13.50
2023-04-10T19:46:17.801Z,14.05
2023-04-10T19:48:40.918Z,13.48
2023-04-10T19:51:05.243Z,12.95
2023-04-10T19:53:28.184Z,12.95
2023-04-10T19:55:50.784Z,12.53
2023-04-10T19:58:25.271Z,11.23
2023-04-10T20:01:02.235Z,11.85
2023-04-10T20:03:27.847Z,11.43
2023-04-10T20:05:50.686Z,11.23
2023-04-10T20:08:13.971Z,11.30
2023-04-10T20:10:36.707Z,10.52
2023-04-10T20:12:59.471Z,10.45
2023-04-10T20:15:22.174Z,10.55
2023-04-10T20:17:44.856Z,10.43
2023-04-10T20:20:08.758Z,11.00
2023-04-10T20:22:31.500Z,10.88
2023-04-10T20:24:54.247Z,10.65
2023-04-10T20:27:17.434Z,11.02
2023-04-10T20:29:40.631Z,12.00
2023-04-10T20:32:03.299Z,11.00
2023-04-10T20:34:26.050Z,11.63
2023-04-10T20:36:48.619Z,12.02
2023-04-10T20:39:11.312Z,11.63
2023-04-10T20:41:34.039Z,11.23
2023-04-10T20:43:57.507Z,11.30
2023-04-10T20:46:20.070Z,10.98
2023-04-10T20:48:42.754Z,10.85
2023-04-10T20:51:05.724Z,10.70
2023-04-10T20:53:29.484Z,10.55
2023-04-10T20:55:54.129Z,11.20
2023-04-10T20:58:16.760Z,12.10
2023-04-10T21:00:41.093Z,11.90
2023-04-10T21:03:03.952Z,11.90
2023-04-10T21:05:26.787Z,12.18
2023-04-10T21:07:49.679Z,13.37
2023-04-10T21:10:12.399Z,13.05
2023-04-10T21:12:35.410Z,13.73
2023-04-10T21:14:58.048Z,13.63
2023-04-10T21:17:22.037Z,13.57
2023-04-10T21:19:45.085Z,13.27
2023-04-10T21:22:10.251Z,13.25
2023-04-10T21:24:32.873Z,13.43
2023-04-10T21:26:55.657Z,13.65
2023-04-10T21:29:19.775Z,13.77
2023-04-10T21:31:42.435Z,14.60
2023-04-10T21:34:05.202Z,13.35
2023-04-10T21:36:27.834Z,14.45
2023-04-10T21:38:50.572Z,13.90
2023-04-10T21:41:13.557Z,13.63
2023-04-10T21:43:37.175Z,14.00
2023-04-10T21:46:02.210Z,14.20
2023-04-10T21:48:25.766Z,14.23
2023-04-10T21:50:49.775Z,13.75
2023-04-10T21:53:12.646Z,14.25
2023-04-10T21:55:35.492Z,13.67
2023-04-10T21:57:58.397Z,13.98
2023-04-10T22:00:22.836Z,14.85
2023-04-10T22:02:46.205Z,14.60
2023-04-10T22:05:09.043Z,14.02
2023-04-10T22:07:31.876Z,14.27
2023-04-10T22:09:54.794Z,14.70
2023-04-10T22:12:17.489Z,14.82
2023-04-10T22:14:40.277Z,14.57
2023-04-10T22:17:02.896Z,16.48
2023-04-10T22:19:25.850Z,16.10
2023-04-10T22:21:48.521Z,16.50
2023-04-10T22:24:11.193Z,16.33
2023-04-10T22:26:36.619Z,16.13
2023-04-10T22:28:59.240Z,15.90
2023-04-10T22:31:22.152Z,15.70
2023-04-10T22:33:45.049Z,15.32
2023-04-10T22:36:08.191Z,16.15
2023-04-10T22:38:31.218Z,15.73
2023-04-10T22:40:54.891Z,15.35
2023-04-10T22:43:17.492Z,15.50
2023-04-10T22:45:41.262Z,15.60
2023-04-10T22:48:04.050Z,15.70
2023-04-10T22:50:26.732Z,15.05
2023-04-10T22:52:49.560Z,15.65
2023-04-10T22:55:12.870Z,15.10
2023-04-10T22:57:35.916Z,15.45
2023-04-10T23:00:00.379Z,15.75
2023-04-10T23:02:23.626Z,15.00
2023-04-10T23:04:46.512Z,16.48
2023-04-10T23:07:09.267Z,15.83
2023-04-10T23:09:32.388Z,16.45
2023-04-10T23:11:55.095Z,16.75
2023-04-10T23:14:17.766Z,16.70
2023-04-10T23:16:40.514Z,18.05
2023-04-10T23:19:03.195Z,16.87
2023-04-10T23:21:27.305Z,16.45
2023-04-10T23:23:50.024Z,17.70
2023-04-10T23:26:12.767Z,17.17
2023-04-10T23:28:35.420Z,17.45
2023-04-10T23:30:58.167Z,16.33
2023-04-10T23:33:21.126Z,16.33
2023-04-10T23:35:43.921Z,16.35
2023-04-10T23:38:06.609Z,15.75
2023-04-10T23:40:29.856Z,15.88
2023-04-10T23:42:52.659Z,17.43
2023-04-10T23:45:15.654Z,16.10
2023-04-10T23:47:38.731Z,17.30
2023-04-10T23:50:01.625Z,15.73
2023-04-10T23:52:24.432Z,16.52
2023-04-10T23:54:47.088Z,16.17
2023-04-10T23:57:09.954Z,15.73
2023-04-10T23:59:32.653Z,16.60
